sensor_id;sensor_type;location;lat;lon;timestamp;P1;durP1;ratioP1;P2;durP2;ratioP2
67378;SDS011;54262;44.642;-0.974;2023-04-01T00:01:46;21.45;;;4.97;;
67378;SDS011;54262;44.642;-0.974;2023-04-01T00:04:12;25.60;;;5.72;;
67378;SDS011;54262;44.642;-0.974;2023-04-01T00:06:41;18.83;;;5.90;;
67378;SDS011;54262;44.642;-0.974;2023-04-01T00:09:07;22.88;;;5.47;;
67378;SDS011;54262;44.642;-0.974;2023-04-01T00:11:33;14.77;;;3.95;;
67378;SDS011;54262;44.642;-0.974;2023-04-01T00:13:59;29.48;;;5.28;;
67378;SDS011;54262;44.642;-0.974;2023-04-01T00:16:25;15.73;;;4.45;;
67378;SDS011;54262;44.642;-0.974;2023-04-01T00:18:51;21.63;;;5.18;;
67378;SDS011;54262;44.642;-0.974;2023-04-01T00:21:18;20.38;;;5.60;;
67378;SDS011;54262;44.642;-0.974;2023-04-01T00:23:45;27.60;;;5.10;;
67378;SDS011;54262;44.642;-0.974;2023-04-01T00:26:11;42.05;;;7.55;;
67378;SDS011;54262;44.642;-0.974;2023-04-01T00:28:39;19.98;;;4.78;;
67378;SDS011;54262;44.642;-0.974;2023-04-01T00:31:06;16.80;;;4.90;;
67378;SDS011;54262;44.642;-0.974;2023-04-01T00:33:32;15.73;;;3.50;;
67378;SDS011;54262;44.642;-0.974;2023-04-01T00:36:11;27.77;;;5.05;;
67378;SDS011;54262;44.642;-0.974;2023-04-01T00:38:38;22.17;;;5.25;;
67378;SDS011;54262;44.642;-0.974;2023-04-01T00:41:04;25.05;;;5.60;;
67378;SDS011;54262;44.642;-0.974;2023-04-01T00:43:34;23.42;;;4.68;;
67378;SDS011;54262;44.642;-0.974;2023-04-01T00:46:00;22.40;;;5.38;;
67378;SDS011;54262;44.642;-0.974;2023-04-01T00:48:35;31.65;;;5.93;;
67378;SDS011;54262;44.642;-0.974;2023-04-01T00:51:03;27.55;;;6.00;;
67378;SDS011;54262;44.642;-0.974;2023-04-01T00:53:30;22.42;;;4.88;;
67378;SDS011;54262;44.642;-0.974;2023-04-01T00:56:00;21.65;;;5.32;;
67378;SDS011;54262;44.642;-0.974;2023-04-01T00:58:27;24.05;;;5.57;;
67378;SDS011;54262;44.642;-0.974;2023-04-01T01:00:55;18.25;;;4.82;;
67378;SDS011;54262;44.642;-0.974;2023-04-01T01:03:22;27.52;;;5.30;;
67378;SDS011;54262;44.642;-0.974;2023-04-01T01:08:29;20.40;;;5.53;;
67378;SDS011;54262;44.642;-0.974;2023-04-01T01:11:01;22.42;;;4.43;;
67378;SDS011;54262;44.642;-0.974;2023-04-01T01:13:33;27.25;;;4.93;;
67378;SDS011;54262;44.642;-0.974;2023-04-01T01:16:13;20.65;;;5.05;;
67378;SDS011;54262;44.642;-0.974;2023-04-01T01:18:49;21.13;;;5.72;;
67378;SDS011;54262;44.642;-0.974;2023-04-01T01:26:52;12.48;;;4.03;;
67378;SDS011;54262;44.642;-0.974;2023-04-01T01:32:03;24.02;;;5.07;;
67378;SDS011;54262;44.642;-0.974;2023-04-01T01:34:36;17.58;;;4.78;;
67378;SDS011;54262;44.642;-0.974;2023-04-01T01:37:08;19.80;;;4.75;;
67378;SDS011;54262;44.642;-0.974;2023-04-01T01:39:36;17.52;;;4.95;;
67378;SDS011;54262;44.642;-0.974;2023-04-01T01:42:04;19.27;;;4.32;;
67378;SDS011;54262;44.642;-0.974;2023-04-01T01:44:32;18.85;;;5.13;;
67378;SDS011;54262;44.642;-0.974;2023-04-01T01:46:59;27.50;;;5.85;;
67378;SDS011;54262;44.642;-0.974;2023-04-01T01:49:28;25.98;;;5.05;;
67378;SDS011;54262;44.642;-0.974;2023-04-01T01:51:56;19.52;;;5.75;;
67378;SDS011;54262;44.642;-0.974;2023-04-01T01:54:23;20.67;;;4.45;;
67378;SDS011;54262;44.642;-0.974;2023-04-01T01:56:49;34.85;;;5.38;;
67378;SDS011;54262;44.642;-0.974;2023-04-01T01:59:17;23.83;;;5.78;;
67378;SDS011;54262;44.642;-0.974;2023-04-01T02:01:46;22.55;;;5.15;;
67378;SDS011;54262;44.642;-0.974;2023-04-01T02:04:14;28.95;;;5.15;;
67378;SDS011;54262;44.642;-0.974;2023-04-01T02:06:42;18.08;;;4.82;;
67378;SDS011;54262;44.642;-0.974;2023-04-01T02:09:12;21.67;;;5.50;;
67378;SDS011;54262;44.642;-0.974;2023-04-01T02:14:05;18.75;;;5.30;;
67378;SDS011;54262;44.642;-0.974;2023-04-01T02:16:33;28.00;;;6.60;;
67378;SDS011;54262;44.642;-0.974;2023-04-01T02:19:00;22.42;;;5.00;;
67378;SDS011;54262;44.642;-0.974;2023-04-01T02:21:27;20.10;;;4.80;;
67378;SDS011;54262;44.642;-0.974;2023-04-01T02:23:55;17.23;;;4.38;;
67378;SDS011;54262;44.642;-0.974;2023-04-01T02:26:22;22.10;;;5.22;;
67378;SDS011;54262;44.642;-0.974;2023-04-01T02:28:50;41.22;;;5.88;;
67378;SDS011;54262;44.642;-0.974;2023-04-01T02:31:16;16.90;;;4.35;;
67378;SDS011;54262;44.642;-0.974;2023-04-01T02:33:43;13.18;;;4.60;;
67378;SDS011;54262;44.642;-0.974;2023-04-01T02:36:12;15.15;;;4.50;;
67378;SDS011;54262;44.642;-0.974;2023-04-01T02:38:38;20.80;;;4.72;;
67378;SDS011;54262;44.642;-0.974;2023-04-01T02:41:04;14.93;;;4.50;;
67378;SDS011;54262;44.642;-0.974;2023-04-01T02:43:31;16.33;;;4.90;;
67378;SDS011;54262;44.642;-0.974;2023-04-01T02:45:57;19.00;;;4.63;;
67378;SDS011;54262;44.642;-0.974;2023-04-01T02:48:23;12.85;;;5.13;;
67378;SDS011;54262;44.642;-0.974;2023-04-01T02:50:52;21.33;;;4.50;;
67378;SDS011;54262;44.642;-0.974;2023-04-01T02:53:21;15.27;;;4.63;;
67378;SDS011;54262;44.642;-0.974;2023-04-01T02:55:47;20.23;;;4.65;;
67378;SDS011;54262;44.642;-0.974;2023-04-01T02:58:15;13.85;;;4.18;;
67378;SDS011;54262;44.642;-0.974;2023-04-01T03:00:41;13.80;;;4.05;;
67378;SDS011;54262;44.642;-0.974;2023-04-01T03:03:07;20.42;;;3.83;;
67378;SDS011;54262;44.642;-0.974;2023-04-01T03:05:34;15.45;;;4.65;;
67378;SDS011;54262;44.642;-0.974;2023-04-01T03:08:00;7.15;;;4.03;;
67378;SDS011;54262;44.642;-0.974;2023-04-01T03:10:28;10.82;;;4.53;;
67378;SDS011;54262;44.642;-0.974;2023-04-01T03:12:54;12.57;;;3.78;;
67378;SDS011;54262;44.642;-0.974;2023-04-01T03:15:20;15.95;;;3.83;;
67378;SDS011;54262;44.642;-0.974;2023-04-01T03:17:46;13.77;;;3.67;;
67378;SDS011;54262;44.642;-0.974;2023-04-01T03:20:13;12.10;;;3.30;;
67378;SDS011;54262;44.642;-0.974;2023-04-01T03:22:39;11.27;;;3.92;;
67378;SDS011;54262;44.642;-0.974;2023-04-01T03:25:06;18.45;;;4.47;;
67378;SDS011;54262;44.642;-0.974;2023-04-01T03:27:33;13.82;;;3.97;;
67378;SDS011;54262;44.642;-0.974;2023-04-01T03:30:00;19.60;;;4.72;;
67378;SDS011;54262;44.642;-0.974;2023-04-01T03:32:26;16.17;;;4.50;;
67378;SDS011;54262;44.642;-0.974;2023-04-01T03:34:52;14.50;;;4.15;;
67378;SDS011;54262;44.642;-0.974;2023-04-01T03:37:18;28.58;;;5.72;;
67378;SDS011;54262;44.642;-0.974;2023-04-01T03:39:44;9.40;;;2.90;;
67378;SDS011;54262;44.642;-0.974;2023-04-01T03:42:11;13.40;;;3.78;;
67378;SDS011;54262;44.642;-0.974;2023-04-01T03:44:37;13.23;;;4.45;;
67378;SDS011;54262;44.642;-0.974;2023-04-01T03:47:03;14.68;;;4.30;;
67378;SDS011;54262;44.642;-0.974;2023-04-01T03:49:29;19.00;;;4.75;;
67378;SDS011;54262;44.642;-0.974;2023-04-01T03:51:57;9.55;;;3.45;;
67378;SDS011;54262;44.642;-0.974;2023-04-01T03:54:24;21.20;;;4.88;;
67378;SDS011;54262;44.642;-0.974;2023-04-01T03:56:50;9.43;;;3.35;;
67378;SDS011;54262;44.642;-0.974;2023-04-01T03:59:16;15.73;;;4.57;;
67378;SDS011;54262;44.642;-0.974;2023-04-01T04:01:42;11.55;;;4.25;;
67378;SDS011;54262;44.642;-0.974;2023-04-01T04:04:10;13.45;;;3.83;;
67378;SDS011;54262;44.642;-0.974;2023-04-01T04:06:37;14.15;;;4.00;;
67378;SDS011;54262;44.642;-0.974;2023-04-01T04:09:03;18.92;;;4.35;;
67378;SDS011;54262;44.642;-0.974;2023-04-01T04:11:32;13.93;;;4.18;;
67378;SDS011;54262;44.642;-0.974;2023-04-01T04:13:58;17.25;;;5.80;;
67378;SDS011;54262;44.642;-0.974;2023-04-01T04:16:24;18.60;;;4.47;;
67378;SDS011;54262;44.642;-0.974;2023-04-01T04:18:50;13.07;;;3.63;;
67378;SDS011;54262;44.642;-0.974;2023-04-01T04:21:16;11.57;;;3.92;;
67378;SDS011;54262;44.642;-0.974;2023-04-01T04:23:42;9.57;;;3.33;;
67378;SDS011;54262;44.642;-0.974;2023-04-01T04:26:09;15.93;;;4.20;;
67378;SDS011;54262;44.642;-0.974;2023-04-01T04:28:36;12.07;;;4.15;;
67378;SDS011;54262;44.642;-0.974;2023-04-01T04:31:02;21.10;;;4.32;;
67378;SDS011;54262;44.642;-0.974;2023-04-01T04:33:30;13.75;;;4.32;;
67378;SDS011;54262;44.642;-0.974;2023-04-01T04:35:56;14.38;;;4.10;;
67378;SDS011;54262;44.642;-0.974;2023-04-01T04:38:23;14.35;;;4.35;;
67378;SDS011;54262;44.642;-0.974;2023-04-01T04:40:49;22.98;;;5.00;;
67378;SDS011;54262;44.642;-0.974;2023-04-01T04:43:15;16.88;;;4.53;;
67378;SDS011;54262;44.642;-0.974;2023-04-01T04:45:42;15.60;;;4.95;;
67378;SDS011;54262;44.642;-0.974;2023-04-01T04:48:08;17.63;;;4.15;;
67378;SDS011;54262;44.642;-0.974;2023-04-01T04:50:37;14.25;;;4.35;;
67378;SDS011;54262;44.642;-0.974;2023-04-01T04:53:11;13.00;;;3.80;;
67378;SDS011;54262;44.642;-0.974;2023-04-01T04:55:37;15.68;;;3.53;;
67378;SDS011;54262;44.642;-0.974;2023-04-01T04:58:03;13.13;;;4.18;;
67378;SDS011;54262;44.642;-0.974;2023-04-01T05:00:29;15.27;;;4.07;;
67378;SDS011;54262;44.642;-0.974;2023-04-01T05:02:56;10.57;;;4.25;;
67378;SDS011;54262;44.642;-0.974;2023-04-01T05:05:21;14.63;;;4.25;;
67378;SDS011;54262;44.642;-0.974;2023-04-01T05:07:50;16.23;;;3.92;;
67378;SDS011;54262;44.642;-0.974;2023-04-01T05:10:17;23.45;;;5.20;;
67378;SDS011;54262;44.642;-0.974;2023-04-01T05:12:45;20.00;;;4.72;;
67378;SDS011;54262;44.642;-0.974;2023-04-01T05:15:11;15.25;;;4.05;;
67378;SDS011;54262;44.642;-0.974;2023-04-01T05:17:37;12.30;;;3.97;;
67378;SDS011;54262;44.642;-0.974;2023-04-01T05:20:03;15.52;;;4.47;;
67378;SDS011;54262;44.642;-0.974;2023-04-01T05:22:30;16.58;;;4.20;;
67378;SDS011;54262;44.642;-0.974;2023-04-01T05:24:56;14.60;;;4.95;;
67378;SDS011;54262;44.642;-0.974;2023-04-01T05:27:22;30.88;;;6.00;;
67378;SDS011;54262;44.642;-0.974;2023-04-01T05:29:48;14.18;;;3.83;;
67378;SDS011;54262;44.642;-0.974;2023-04-01T05:32:14;13.65;;;4.05;;
67378;SDS011;54262;44.642;-0.974;2023-04-01T05:34:40;14.07;;;4.38;;
67378;SDS011;54262;44.642;-0.974;2023-04-01T05:37:06;14.07;;;4.20;;
67378;SDS011;54262;44.642;-0.974;2023-04-01T05:39:35;11.98;;;3.20;;
67378;SDS011;54262;44.642;-0.974;2023-04-01T05:42:02;22.17;;;5.18;;
67378;SDS011;54262;44.642;-0.974;2023-04-01T05:44:28;13.43;;;3.83;;
67378;SDS011;54262;44.642;-0.974;2023-04-01T05:46:54;24.67;;;4.72;;
67378;SDS011;54262;44.642;-0.974;2023-04-01T05:49:20;12.88;;;3.15;;
67378;SDS011;54262;44.642;-0.974;2023-04-01T05:51:46;14.43;;;4.80;;
67378;SDS011;54262;44.642;-0.974;2023-04-01T05:54:15;13.88;;;4.75;;
67378;SDS011;54262;44.642;-0.974;2023-04-01T05:56:41;11.40;;;3.67;;
67378;SDS011;54262;44.642;-0.974;2023-04-01T05:59:09;11.63;;;4.07;;
67378;SDS011;54262;44.642;-0.974;2023-04-01T06:01:35;11.55;;;4.32;;
67378;SDS011;54262;44.642;-0.974;2023-04-01T06:04:01;17.90;;;4.53;;
67378;SDS011;54262;44.642;-0.974;2023-04-01T06:06:28;18.48;;;4.25;;
67378;SDS011;54262;44.642;-0.974;2023-04-01T06:08:55;21.90;;;4.85;;
67378;SDS011;54262;44.642;-0.974;2023-04-01T06:14:03;16.80;;;4.38;;
67378;SDS011;54262;44.642;-0.974;2023-04-01T06:17:15;12.57;;;3.72;;
67378;SDS011;54262;44.642;-0.974;2023-04-01T06:22:17;16.52;;;4.72;;
67378;SDS011;54262;44.642;-0.974;2023-04-01T06:27:50;17.70;;;4.47;;
67378;SDS011;54262;44.642;-0.974;2023-04-01T06:35:43;22.48;;;6.07;;
67378;SDS011;54262;44.642;-0.974;2023-04-01T06:41:06;32.63;;;6.35;;
67378;SDS011;54262;44.642;-0.974;2023-04-01T06:48:40;19.30;;;4.43;;
67378;SDS011;54262;44.642;-0.974;2023-04-01T06:56:53;10.57;;;3.90;;
67378;SDS011;54262;44.642;-0.974;2023-04-01T06:59:24;18.15;;;4.38;;
67378;SDS011;54262;44.642;-0.974;2023-04-01T07:01:55;16.77;;;4.70;;
67378;SDS011;54262;44.642;-0.974;2023-04-01T07:07:12;12.60;;;4.50;;
67378;SDS011;54262;44.642;-0.974;2023-04-01T07:09:36;14.40;;;4.63;;
67378;SDS011;54262;44.642;-0.974;2023-04-01T07:12:06;19.65;;;4.53;;
67378;SDS011;54262;44.642;-0.974;2023-04-01T07:14:38;19.53;;;3.43;;
67378;SDS011;54262;44.642;-0.974;2023-04-01T07:17:08;15.18;;;4.80;;
67378;SDS011;54262;44.642;-0.974;2023-04-01T07:22:35;12.55;;;3.72;;
67378;SDS011;54262;44.642;-0.974;2023-04-01T07:27:50;16.35;;;4.25;;
67378;SDS011;54262;44.642;-0.974;2023-04-01T07:30:19;11.88;;;4.10;;
67378;SDS011;54262;44.642;-0.974;2023-04-01T07:32:55;21.80;;;5.07;;
67378;SDS011;54262;44.642;-0.974;2023-04-01T07:35:30;13.60;;;4.13;;
67378;SDS011;54262;44.642;-0.974;2023-04-01T07:45:42;21.58;;;4.95;;
67378;SDS011;54262;44.642;-0.974;2023-04-01T07:55:46;12.52;;;4.28;;
67378;SDS011;54262;44.642;-0.974;2023-04-01T08:03:21;17.95;;;3.92;;
67378;SDS011;54262;44.642;-0.974;2023-04-01T08:11:33;36.33;;;6.88;;
67378;SDS011;54262;44.642;-0.974;2023-04-01T08:14:12;22.02;;;5.20;;
67378;SDS011;54262;44.642;-0.974;2023-04-01T08:16:53;17.17;;;4.57;;
67378;SDS011;54262;44.642;-0.974;2023-04-01T08:19:42;11.75;;;3.63;;
67378;SDS011;54262;44.642;-0.974;2023-04-01T08:22:18;28.83;;;5.30;;
67378;SDS011;54262;44.642;-0.974;2023-04-01T08:24:46;15.10;;;4.47;;
67378;SDS011;54262;44.642;-0.974;2023-04-01T08:32:39;12.40;;;3.60;;
67378;SDS011;54262;44.642;-0.974;2023-04-01T08:35:16;9.25;;;3.75;;
67378;SDS011;54262;44.642;-0.974;2023-04-01T08:37:43;13.18;;;3.70;;
67378;SDS011;54262;44.642;-0.974;2023-04-01T08:40:17;13.57;;;3.72;;
67378;SDS011;54262;44.642;-0.974;2023-04-01T08:56:36;13.25;;;3.28;;
67378;SDS011;54262;44.642;-0.974;2023-04-01T09:04:40;10.88;;;3.42;;
67378;SDS011;54262;44.642;-0.974;2023-04-01T09:07:55;10.15;;;2.78;;
67378;SDS011;54262;44.642;-0.974;2023-04-01T09:17:39;8.90;;;2.53;;
67378;SDS011;54262;44.642;-0.974;2023-04-01T09:20:17;17.90;;;3.88;;
67378;SDS011;54262;44.642;-0.974;2023-04-01T09:22:58;8.20;;;2.70;;
67378;SDS011;54262;44.642;-0.974;2023-04-01T09:25:36;11.45;;;3.45;;
67378;SDS011;54262;44.642;-0.974;2023-04-01T09:28:13;9.43;;;2.70;;
67378;SDS011;54262;44.642;-0.974;2023-04-01T09:38:35;10.50;;;3.17;;
67378;SDS011;54262;44.642;-0.974;2023-04-01T09:59:40;13.18;;;3.65;;
67378;SDS011;54262;44.642;-0.974;2023-04-01T10:07:29;8.13;;;3.13;;
67378;SDS011;54262;44.642;-0.974;2023-04-01T10:25:37;18.27;;;4.05;;
67378;SDS011;54262;44.642;-0.974;2023-04-01T10:54:13;12.43;;;3.38;;
67378;SDS011;54262;44.642;-0.974;2023-04-01T10:56:59;15.43;;;4.38;;
67378;SDS011;54262;44.642;-0.974;2023-04-01T11:07:16;7.32;;;2.80;;
67378;SDS011;54262;44.642;-0.974;2023-04-01T11:20:37;12.82;;;3.13;;
67378;SDS011;54262;44.642;-0.974;2023-04-01T11:22:58;12.48;;;3.83;;
67378;SDS011;54262;44.642;-0.974;2023-04-01T11:44:09;3.97;;;2.08;;
67378;SDS011;54262;44.642;-0.974;2023-04-01T11:49:19;8.32;;;2.63;;
67378;SDS011;54262;44.642;-0.974;2023-04-01T11:59:49;3.38;;;1.90;;
67378;SDS011;54262;44.642;-0.974;2023-04-01T12:02:24;7.68;;;2.85;;
67378;SDS011;54262;44.642;-0.974;2023-04-01T12:04:54;7.60;;;1.90;;
67378;SDS011;54262;44.642;-0.974;2023-04-01T12:17:41;10.90;;;3.20;;
67378;SDS011;54262;44.642;-0.974;2023-04-01T12:20:16;6.35;;;1.50;;
67378;SDS011;54262;44.642;-0.974;2023-04-01T12:22:50;3.47;;;1.98;;
67378;SDS011;54262;44.642;-0.974;2023-04-01T12:30:52;10.80;;;1.65;;
67378;SDS011;54262;44.642;-0.974;2023-04-01T12:33:42;5.43;;;0.93;;
67378;SDS011;54262;44.642;-0.974;2023-04-01T12:36:16;11.70;;;3.10;;
67378;SDS011;54262;44.642;-0.974;2023-04-01T12:54:23;8.18;;;3.60;;
67378;SDS011;54262;44.642;-0.974;2023-04-01T13:12:30;5.43;;;2.10;;
67378;SDS011;54262;44.642;-0.974;2023-04-01T13:22:32;7.03;;;2.33;;
67378;SDS011;54262;44.642;-0.974;2023-04-01T13:25:09;3.92;;;2.20;;
67378;SDS011;54262;44.642;-0.974;2023-04-01T13:27:41;12.07;;;2.97;;
67378;SDS011;54262;44.642;-0.974;2023-04-01T13:32:47;15.45;;;2.95;;
67378;SDS011;54262;44.642;-0.974;2023-04-01T13:35:21;3.92;;;1.80;;
67378;SDS011;54262;44.642;-0.974;2023-04-01T13:37:52;4.97;;;2.47;;
67378;SDS011;54262;44.642;-0.974;2023-04-01T13:40:30;6.78;;;2.05;;
67378;SDS011;54262;44.642;-0.974;2023-04-01T13:43:20;7.50;;;1.95;;
67378;SDS011;54262;44.642;-0.974;2023-04-01T14:19:42;5.78;;;2.03;;
67378;SDS011;54262;44.642;-0.974;2023-04-01T14:22:13;10.13;;;1.88;;
67378;SDS011;54262;44.642;-0.974;2023-04-01T14:24:51;4.65;;;1.23;;
67378;SDS011;54262;44.642;-0.974;2023-04-01T14:27:31;4.68;;;1.50;;
67378;SDS011;54262;44.642;-0.974;2023-04-01T14:30:05;1.58;;;1.10;;
67378;SDS011;54262;44.642;-0.974;2023-04-01T14:35:21;3.70;;;1.30;;
67378;SDS011;54262;44.642;-0.974;2023-04-01T14:38:11;6.25;;;1.58;;
67378;SDS011;54262;44.642;-0.974;2023-04-01T14:41:06;11.32;;;1.95;;
67378;SDS011;54262;44.642;-0.974;2023-04-01T14:48:55;3.95;;;1.65;;
67378;SDS011;54262;44.642;-0.974;2023-04-01T14:51:29;8.85;;;1.80;;
67378;SDS011;54262;44.642;-0.974;2023-04-01T14:56:39;1.20;;;0.93;;
67378;SDS011;54262;44.642;-0.974;2023-04-01T14:59:09;2.97;;;0.90;;
67378;SDS011;54262;44.642;-0.974;2023-04-01T15:12:01;5.57;;;1.17;;
67378;SDS011;54262;44.642;-0.974;2023-04-01T15:14:34;5.75;;;1.98;;
67378;SDS011;54262;44.642;-0.974;2023-04-01T15:25:10;6.72;;;1.15;;
67378;SDS011;54262;44.642;-0.974;2023-04-01T15:35:30;7.95;;;1.90;;
67378;SDS011;54262;44.642;-0.974;2023-04-01T15:38:19;7.35;;;2.08;;
67378;SDS011;54262;44.642;-0.974;2023-04-01T15:40:49;7.60;;;2.88;;
67378;SDS011;54262;44.642;-0.974;2023-04-01T15:45:58;5.22;;;1.95;;
67378;SDS011;54262;44.642;-0.974;2023-04-01T15:48:47;8.98;;;2.05;;
67378;SDS011;54262;44.642;-0.974;2023-04-01T16:22:50;4.22;;;1.50;;
67378;SDS011;54262;44.642;-0.974;2023-04-01T16:27:52;7.15;;;2.15;;
67378;SDS011;54262;44.642;-0.974;2023-04-01T16:30:38;5.38;;;1.98;;
67378;SDS011;54262;44.642;-0.974;2023-04-01T16:33:22;3.80;;;1.55;;
67378;SDS011;54262;44.642;-0.974;2023-04-01T16:36:02;1.85;;;1.58;;
67378;SDS011;54262;44.642;-0.974;2023-04-01T16:46:20;3.47;;;1.73;;
67378;SDS011;54262;44.642;-0.974;2023-04-01T16:51:18;8.10;;;2.25;;
67378;SDS011;54262;44.642;-0.974;2023-04-01T16:53:48;2.28;;;1.65;;
67378;SDS011;54262;44.642;-0.974;2023-04-01T16:58:42;9.95;;;2.50;;
67378;SDS011;54262;44.642;-0.974;2023-04-01T17:01:13;7.43;;;2.30;;
67378;SDS011;54262;44.642;-0.974;2023-04-01T17:03:45;2.80;;;1.70;;
67378;SDS011;54262;44.642;-0.974;2023-04-01T17:06:31;7.97;;;1.85;;
67378;SDS011;54262;44.642;-0.974;2023-04-01T17:09:23;4.82;;;1.63;;
67378;SDS011;54262;44.642;-0.974;2023-04-01T17:32:20;4.50;;;2.13;;
67378;SDS011;54262;44.642;-0.974;2023-04-01T17:34:57;2.55;;;1.20;;
67378;SDS011;54262;44.642;-0.974;2023-04-01T17:40:21;14.60;;;2.38;;
67378;SDS011;54262;44.642;-0.974;2023-04-01T17:43:34;4.28;;;1.55;;
67378;SDS011;54262;44.642;-0.974;2023-04-01T17:53:19;6.88;;;1.58;;
67378;SDS011;54262;44.642;-0.974;2023-04-01T17:56:01;10.60;;;1.75;;
67378;SDS011;54262;44.642;-0.974;2023-04-01T18:01:01;5.63;;;2.03;;
67378;SDS011;54262;44.642;-0.974;2023-04-01T18:11:34;17.10;;;2.65;;
67378;SDS011;54262;44.642;-0.974;2023-04-01T18:19:13;4.25;;;1.95;;
67378;SDS011;54262;44.642;-0.974;2023-04-01T18:21:45;2.78;;;1.90;;
67378;SDS011;54262;44.642;-0.974;2023-04-01T18:26:59;10.63;;;2.47;;
67378;SDS011;54262;44.642;-0.974;2023-04-01T18:29:31;14.40;;;3.45;;
67378;SDS011;54262;44.642;-0.974;2023-04-01T18:34:43;12.60;;;2.45;;
67378;SDS011;54262;44.642;-0.974;2023-04-01T18:37:17;16.23;;;3.35;;
67378;SDS011;54262;44.642;-0.974;2023-04-01T18:39:49;6.25;;;2.45;;
67378;SDS011;54262;44.642;-0.974;2023-04-01T18:42:24;4.65;;;2.50;;
67378;SDS011;54262;44.642;-0.974;2023-04-01T18:45:09;4.50;;;1.75;;
67378;SDS011;54262;44.642;-0.974;2023-04-01T18:48:01;4.93;;;1.80;;
67378;SDS011;54262;44.642;-0.974;2023-04-01T18:52:59;8.50;;;2.20;;
67378;SDS011;54262;44.642;-0.974;2023-04-01T18:55:37;13.95;;;2.53;;
67378;SDS011;54262;44.642;-0.974;2023-04-01T19:06:19;6.53;;;1.98;;
67378;SDS011;54262;44.642;-0.974;2023-04-01T19:08:47;3.53;;;1.55;;
67378;SDS011;54262;44.642;-0.974;2023-04-01T19:11:25;7.65;;;1.42;;
67378;SDS011;54262;44.642;-0.974;2023-04-01T19:14:06;3.17;;;1.25;;
67378;SDS011;54262;44.642;-0.974;2023-04-01T19:16:46;5.95;;;1.58;;
67378;SDS011;54262;44.642;-0.974;2023-04-01T19:21:45;8.55;;;1.90;;
67378;SDS011;54262;44.642;-0.974;2023-04-01T19:24:39;8.75;;;2.42;;
67378;SDS011;54262;44.642;-0.974;2023-04-01T19:27:18;9.35;;;1.75;;
67378;SDS011;54262;44.642;-0.974;2023-04-01T19:37:32;3.58;;;1.48;;
67378;SDS011;54262;44.642;-0.974;2023-04-01T19:45:25;5.10;;;1.52;;
67378;SDS011;54262;44.642;-0.974;2023-04-01T19:55:55;9.70;;;1.73;;
67378;SDS011;54262;44.642;-0.974;2023-04-01T19:58:33;8.00;;;2.30;;
67378;SDS011;54262;44.642;-0.974;2023-04-01T20:01:00;8.20;;;2.40;;
67378;SDS011;54262;44.642;-0.974;2023-04-01T20:15:59;4.70;;;1.55;;
67378;SDS011;54262;44.642;-0.974;2023-04-01T20:18:34;5.70;;;1.85;;
67378;SDS011;54262;44.642;-0.974;2023-04-01T20:21:46;7.72;;;2.13;;
67378;SDS011;54262;44.642;-0.974;2023-04-01T20:23:50;13.48;;;2.08;;
67378;SDS011;54262;44.642;-0.974;2023-04-01T20:26:22;17.58;;;2.55;;
67378;SDS011;54262;44.642;-0.974;2023-04-01T20:50:00;23.83;;;3.45;;
67378;SDS011;54262;44.642;-0.974;2023-04-01T20:52:41;23.63;;;3.53;;
67378;SDS011;54262;44.642;-0.974;2023-04-01T21:00:20;19.48;;;3.47;;
67378;SDS011;54262;44.642;-0.974;2023-04-01T21:08:32;17.02;;;3.55;;
67378;SDS011;54262;44.642;-0.974;2023-04-01T21:11:04;38.92;;;4.60;;
67378;SDS011;54262;44.642;-0.974;2023-04-01T21:13:36;23.98;;;3.95;;
67378;SDS011;54262;44.642;-0.974;2023-04-01T21:18:47;20.17;;;4.90;;
67378;SDS011;54262;44.642;-0.974;2023-04-01T21:23:59;24.30;;;3.90;;
67378;SDS011;54262;44.642;-0.974;2023-04-01T21:50:26;26.15;;;4.38;;
67378;SDS011;54262;44.642;-0.974;2023-04-01T22:00:38;16.73;;;3.35;;
67378;SDS011;54262;44.642;-0.974;2023-04-01T22:13:23;31.38;;;5.03;;
67378;SDS011;54262;44.642;-0.974;2023-04-01T22:18:27;21.23;;;3.15;;
67378;SDS011;54262;44.642;-0.974;2023-04-01T22:31:06;21.42;;;4.15;;
67378;SDS011;54262;44.642;-0.974;2023-04-01T22:43:47;16.90;;;3.10;;
67378;SDS011;54262;44.642;-0.974;2023-04-01T22:46:25;22.13;;;4.35;;
67378;SDS011;54262;44.642;-0.974;2023-04-01T22:51:44;30.63;;;5.45;;
67378;SDS011;54262;44.642;-0.974;2023-04-01T22:54:27;24.50;;;4.75;;
67378;SDS011;54262;44.642;-0.974;2023-04-01T22:59:26;13.00;;;3.78;;
67378;SDS011;54262;44.642;-0.974;2023-04-01T23:04:24;21.75;;;4.78;;
67378;SDS011;54262;44.642;-0.974;2023-04-01T23:06:56;10.60;;;3.15;;
67378;SDS011;54262;44.642;-0.974;2023-04-01T23:09:24;16.63;;;3.40;;
67378;SDS011;54262;44.642;-0.974;2023-04-01T23:11:58;22.88;;;4.00;;
67378;SDS011;54262;44.642;-0.974;2023-04-01T23:14:29;16.42;;;3.47;;
67378;SDS011;54262;44.642;-0.974;2023-04-01T23:24:32;19.45;;;3.65;;
67378;SDS011;54262;44.642;-0.974;2023-04-01T23:27:08;22.65;;;4.35;;
67378;SDS011;54262;44.642;-0.974;2023-04-01T23:29:36;13.02;;;2.92;;
67378;SDS011;54262;44.642;-0.974;2023-04-01T23:32:04;18.15;;;3.70;;
67378;SDS011;54262;44.642;-0.974;2023-04-01T23:34:31;12.88;;;3.13;;
67378;SDS011;54262;44.642;-0.974;2023-04-01T23:37:01;13.57;;;4.05;;
67378;SDS011;54262;44.642;-0.974;2023-04-01T23:39:34;20.88;;;3.28;;
67378;SDS011;54262;44.642;-0.974;2023-04-01T23:42:02;20.13;;;3.75;;
67378;SDS011;54262;44.642;-0.974;2023-04-01T23:44:32;17.05;;;3.75;;
67378;SDS011;54262;44.642;-0.974;2023-04-01T23:46:59;12.40;;;3.72;;
67378;SDS011;54262;44.642;-0.974;2023-04-01T23:49:30;17.05;;;3.47;;
67378;SDS011;54262;44.642;-0.974;2023-04-01T23:54:50;19.23;;;3.83;;
67378;SDS011;54262;44.642;-0.974;2023-04-01T23:57:30;22.13;;;3.33;;
